Terminal Aerodrome Forecast
Issued by NWS Portland, OR

Home | Current Version | Previous Version | Text Only | Print | Product List | Glossary On
Versions: 1 2 3 4 5 6 7 8 9 10 11 12 13 14 15 16 17 18 19 20 21 22 23 24 25 26 27 28 29 30 31 32 33 34 35 36 37 38 39
000
FTUS46 KPQR 132340
TAFAST
TAF
KAST 132340Z 1400/1424 VRB10KT P6SM VCTS BKN009 OVC070CB
     FM140400 26004KT 3SM BR OVC004
     FM140900 30005KT 1SM BR OVC007
     FM141700 30006KT P6SM OVC009
     FM142200 30010KT P6SM BKN010=

USA.gov is the U.S. government's official web portal to all federal, state and local government web resources and services.